sensor_id;sensor_type;location;lat;lon;timestamp;pressure;altitude;pressure_sealevel;temperature;humidity
9905;BME280;4991;43.566;27.820;2022-12-10T00:01:12;98323.75;;;12.18;100.00
9905;BME280;4991;43.566;27.820;2022-12-10T00:03:39;98308.03;;;12.15;100.00
9905;BME280;4991;43.566;27.820;2022-12-10T00:06:07;98300.19;;;12.13;100.00
9905;BME280;4991;43.566;27.820;2022-12-10T00:08:34;98299.38;;;12.13;100.00
9905;BME280;4991;43.566;27.820;2022-12-10T00:11:01;98298.56;;;12.12;100.00
9905;BME280;4991;43.566;27.820;2022-12-10T00:13:27;98305.00;;;12.08;100.00
9905;BME280;4991;43.566;27.820;2022-12-10T00:15:53;98301.47;;;12.07;100.00
9905;BME280;4991;43.566;27.820;2022-12-10T00:18:19;98307.75;;;12.08;100.00
9905;BME280;4991;43.566;27.820;2022-12-10T00:20:44;98297.31;;;12.10;100.00
9905;BME280;4991;43.566;27.820;2022-12-10T00:23:10;98291.50;;;12.11;100.00
9905;BME280;4991;43.566;27.820;2022-12-10T00:25:35;98291.19;;;12.13;100.00
9905;BME280;4991;43.566;27.820;2022-12-10T00:28:01;98282.06;;;12.09;100.00
9905;BME280;4991;43.566;27.820;2022-12-10T00:30:27;98284.41;;;12.19;100.00
9905;BME280;4991;43.566;27.820;2022-12-10T00:32:52;98280.94;;;12.10;100.00
9905;BME280;4991;43.566;27.820;2022-12-10T00:35:18;98259.59;;;12.03;100.00
9905;BME280;4991;43.566;27.820;2022-12-10T00:37:44;98262.97;;;12.09;100.00
9905;BME280;4991;43.566;27.820;2022-12-10T00:40:09;98270.16;;;12.13;100.00
9905;BME280;4991;43.566;27.820;2022-12-10T00:42:38;98265.47;;;12.14;100.00
9905;BME280;4991;43.566;27.820;2022-12-10T00:45:04;98262.56;;;12.19;100.00
9905;BME280;4991;43.566;27.820;2022-12-10T00:47:30;98268.00;;;12.27;100.00
9905;BME280;4991;43.566;27.820;2022-12-10T00:49:56;98268.78;;;12.36;100.00
9905;BME280;4991;43.566;27.820;2022-12-10T00:52:21;98270.84;;;12.39;100.00
9905;BME280;4991;43.566;27.820;2022-12-10T00:54:47;98273.06;;;12.46;100.00
9905;BME280;4991;43.566;27.820;2022-12-10T00:57:12;98273.56;;;12.48;100.00
9905;BME280;4991;43.566;27.820;2022-12-10T00:59:38;98275.13;;;12.49;100.00
9905;BME280;4991;43.566;27.820;2022-12-10T01:02:04;98273.69;;;12.51;100.00
9905;BME280;4991;43.566;27.820;2022-12-10T01:04:29;98265.97;;;12.53;100.00
9905;BME280;4991;43.566;27.820;2022-12-10T01:06:55;98271.25;;;12.58;100.00
9905;BME280;4991;43.566;27.820;2022-12-10T01:09:26;98270.25;;;12.63;100.00
9905;BME280;4991;43.566;27.820;2022-12-10T01:11:53;98274.09;;;12.62;100.00
9905;BME280;4991;43.566;27.820;2022-12-10T01:14:22;98262.06;;;12.63;100.00
9905;BME280;4991;43.566;27.820;2022-12-10T01:16:51;98278.59;;;12.66;100.00
9905;BME280;4991;43.566;27.820;2022-12-10T01:19:18;98279.84;;;12.69;100.00
9905;BME280;4991;43.566;27.820;2022-12-10T01:21:43;98275.34;;;12.73;100.00
9905;BME280;4991;43.566;27.820;2022-12-10T01:24:09;98264.91;;;12.75;100.00
9905;BME280;4991;43.566;27.820;2022-12-10T01:26:35;98254.59;;;12.72;100.00
9905;BME280;4991;43.566;27.820;2022-12-10T01:29:03;98256.56;;;12.71;100.00
9905;BME280;4991;43.566;27.820;2022-12-10T01:31:31;98255.41;;;12.72;100.00
9905;BME280;4991;43.566;27.820;2022-12-10T01:33:58;98247.22;;;12.72;100.00
9905;BME280;4991;43.566;27.820;2022-12-10T01:36:29;98238.22;;;12.72;100.00
9905;BME280;4991;43.566;27.820;2022-12-10T01:38:55;98242.28;;;12.66;100.00
9905;BME280;4991;43.566;27.820;2022-12-10T01:41:24;98229.56;;;12.70;100.00
9905;BME280;4991;43.566;27.820;2022-12-10T01:46:15;98211.56;;;12.69;100.00
9905;BME280;4991;43.566;27.820;2022-12-10T01:48:41;98212.53;;;12.73;100.00
9905;BME280;4991;43.566;27.820;2022-12-10T01:51:07;98212.53;;;12.73;100.00
9905;BME280;4991;43.566;27.820;2022-12-10T01:53:33;98212.38;;;12.69;100.00
9905;BME280;4991;43.566;27.820;2022-12-10T01:55:59;98210.56;;;12.73;100.00
9905;BME280;4991;43.566;27.820;2022-12-10T01:58:25;98200.91;;;12.76;100.00
9905;BME280;4991;43.566;27.820;2022-12-10T02:01:12;98199.44;;;12.78;100.00
9905;BME280;4991;43.566;27.820;2022-12-10T02:06:31;98200.09;;;12.75;100.00
9905;BME280;4991;43.566;27.820;2022-12-10T02:09:09;98205.25;;;12.77;100.00
9905;BME280;4991;43.566;27.820;2022-12-10T02:14:29;98198.31;;;12.79;100.00
9905;BME280;4991;43.566;27.820;2022-12-10T02:17:04;98189.66;;;12.77;100.00
9905;BME280;4991;43.566;27.820;2022-12-10T02:22:31;98181.94;;;12.79;100.00
9905;BME280;4991;43.566;27.820;2022-12-10T02:24:58;98179.88;;;12.76;100.00
9905;BME280;4991;43.566;27.820;2022-12-10T02:27:50;98181.25;;;12.82;100.00
9905;BME280;4991;43.566;27.820;2022-12-10T02:30:18;98180.44;;;12.82;100.00
9905;BME280;4991;43.566;27.820;2022-12-10T02:32:45;98180.94;;;12.84;100.00
9905;BME280;4991;43.566;27.820;2022-12-10T02:35:18;98179.81;;;12.85;100.00
9905;BME280;4991;43.566;27.820;2022-12-10T02:37:48;98181.41;;;12.86;100.00
9905;BME280;4991;43.566;27.820;2022-12-10T02:40:29;98178.34;;;12.87;100.00
9905;BME280;4991;43.566;27.820;2022-12-10T02:42:56;98170.81;;;12.84;100.00
9905;BME280;4991;43.566;27.820;2022-12-10T02:45:23;98179.34;;;12.83;100.00
9905;BME280;4991;43.566;27.820;2022-12-10T02:47:55;98177.06;;;12.85;100.00
9905;BME280;4991;43.566;27.820;2022-12-10T02:50:22;98180.25;;;12.87;100.00
9905;BME280;4991;43.566;27.820;2022-12-10T02:52:48;98175.25;;;12.89;100.00
9905;BME280;4991;43.566;27.820;2022-12-10T02:55:14;98174.44;;;12.88;100.00
9905;BME280;4991;43.566;27.820;2022-12-10T03:00:57;98167.72;;;12.86;100.00
9905;BME280;4991;43.566;27.820;2022-12-10T03:03:43;98168.22;;;12.88;100.00
9905;BME280;4991;43.566;27.820;2022-12-10T03:06:33;98163.66;;;12.92;100.00
9905;BME280;4991;43.566;27.820;2022-12-10T03:09:06;98165.28;;;12.93;100.00
9905;BME280;4991;43.566;27.820;2022-12-10T03:11:32;98165.72;;;12.95;100.00
9905;BME280;4991;43.566;27.820;2022-12-10T03:14:02;98175.06;;;12.94;100.00
9905;BME280;4991;43.566;27.820;2022-12-10T03:16:35;98173.69;;;12.88;100.00
9905;BME280;4991;43.566;27.820;2022-12-10T03:19:06;98176.41;;;12.88;100.00
9905;BME280;4991;43.566;27.820;2022-12-10T03:21:34;98173.34;;;12.89;100.00
9905;BME280;4991;43.566;27.820;2022-12-10T03:24:02;98176.06;;;12.89;100.00
9905;BME280;4991;43.566;27.820;2022-12-10T03:26:28;98175.25;;;12.89;100.00
9905;BME280;4991;43.566;27.820;2022-12-10T03:29:01;98177.19;;;12.88;100.00
9905;BME280;4991;43.566;27.820;2022-12-10T03:31:30;98167.06;;;12.89;100.00
9905;BME280;4991;43.566;27.820;2022-12-10T03:33:56;98169.66;;;12.85;100.00
9905;BME280;4991;43.566;27.820;2022-12-10T03:36:23;98172.06;;;12.87;100.00
9905;BME280;4991;43.566;27.820;2022-12-10T03:38:50;98174.59;;;12.92;100.00
9905;BME280;4991;43.566;27.820;2022-12-10T03:41:16;98165.28;;;12.93;100.00
9905;BME280;4991;43.566;27.820;2022-12-10T03:43:56;98162.41;;;12.89;100.00
9905;BME280;4991;43.566;27.820;2022-12-10T03:46:22;98170.59;;;12.89;100.00
9905;BME280;4991;43.566;27.820;2022-12-10T03:48:48;98162.97;;;12.95;100.00
9905;BME280;4991;43.566;27.820;2022-12-10T03:51:14;98161.25;;;12.90;100.00
9905;BME280;4991;43.566;27.820;2022-12-10T03:53:40;98166.06;;;12.93;100.00
9905;BME280;4991;43.566;27.820;2022-12-10T03:56:06;98158.00;;;12.97;100.00
9905;BME280;4991;43.566;27.820;2022-12-10T03:58:31;98157.50;;;12.95;100.00
9905;BME280;4991;43.566;27.820;2022-12-10T04:00:57;98156.88;;;12.98;100.00
9905;BME280;4991;43.566;27.820;2022-12-10T04:03:22;98146.72;;;12.98;100.00
9905;BME280;4991;43.566;27.820;2022-12-10T04:05:48;98148.53;;;12.94;100.00
9905;BME280;4991;43.566;27.820;2022-12-10T04:08:14;98140.47;;;12.98;100.00
9905;BME280;4991;43.566;27.820;2022-12-10T04:10:40;98143.22;;;12.98;100.00
9905;BME280;4991;43.566;27.820;2022-12-10T04:13:05;98135.00;;;12.98;100.00
9905;BME280;4991;43.566;27.820;2022-12-10T04:15:50;98140.75;;;13.05;100.00
9905;BME280;4991;43.566;27.820;2022-12-10T04:18:34;98135.94;;;13.02;100.00
9905;BME280;4991;43.566;27.820;2022-12-10T04:21:00;98124.47;;;13.09;100.00
9905;BME280;4991;43.566;27.820;2022-12-10T04:23:44;98129.16;;;13.08;100.00
9905;BME280;4991;43.566;27.820;2022-12-10T04:26:28;98128.00;;;13.09;100.00
9905;BME280;4991;43.566;27.820;2022-12-10T04:29:12;98125.97;;;13.06;100.00
9905;BME280;4991;43.566;27.820;2022-12-10T04:31:38;98127.53;;;13.07;100.00
9905;BME280;4991;43.566;27.820;2022-12-10T04:34:03;98128.22;;;13.04;100.00
9905;BME280;4991;43.566;27.820;2022-12-10T04:36:29;98136.88;;;13.06;100.00
9905;BME280;4991;43.566;27.820;2022-12-10T04:38:55;98142.22;;;13.03;100.00
9905;BME280;4991;43.566;27.820;2022-12-10T04:41:20;98139.81;;;13.01;100.00
9905;BME280;4991;43.566;27.820;2022-12-10T04:43:46;98136.75;;;13.03;100.00
9905;BME280;4991;43.566;27.820;2022-12-10T04:46:12;98141.41;;;13.02;100.00
9905;BME280;4991;43.566;27.820;2022-12-10T04:48:37;98139.16;;;13.04;100.00
9905;BME280;4991;43.566;27.820;2022-12-10T04:51:03;98146.88;;;13.02;100.00
9905;BME280;4991;43.566;27.820;2022-12-10T04:53:29;98147.06;;;12.97;100.00
9905;BME280;4991;43.566;27.820;2022-12-10T04:55:54;98145.59;;;12.99;100.00
9905;BME280;4991;43.566;27.820;2022-12-10T04:58:20;98139.31;;;12.99;100.00
9905;BME280;4991;43.566;27.820;2022-12-10T05:00:46;98138.19;;;13.00;100.00
9905;BME280;4991;43.566;27.820;2022-12-10T05:03:11;98141.88;;;13.04;100.00
9905;BME280;4991;43.566;27.820;2022-12-10T05:05:37;98140.63;;;13.02;100.00
9905;BME280;4991;43.566;27.820;2022-12-10T05:08:02;98146.88;;;13.02;100.00
9905;BME280;4991;43.566;27.820;2022-12-10T05:10:30;98149.63;;;13.02;100.00
9905;BME280;4991;43.566;27.820;2022-12-10T05:12:59;98150.13;;;12.95;100.00
9905;BME280;4991;43.566;27.820;2022-12-10T05:15:24;98148.34;;;12.99;100.00
9905;BME280;4991;43.566;27.820;2022-12-10T05:17:50;98158.63;;;13.03;100.00
9905;BME280;4991;43.566;27.820;2022-12-10T05:20:15;98154.75;;;13.04;100.00
9905;BME280;4991;43.566;27.820;2022-12-10T05:22:41;98155.56;;;13.04;100.00
9905;BME280;4991;43.566;27.820;2022-12-10T05:25:25;98161.34;;;13.03;100.00
9905;BME280;4991;43.566;27.820;2022-12-10T05:27:51;98158.28;;;13.04;100.00
9905;BME280;4991;43.566;27.820;2022-12-10T05:30:16;98157.66;;;12.98;100.00
9905;BME280;4991;43.566;27.820;2022-12-10T05:32:42;98160.56;;;13.02;100.00
9905;BME280;4991;43.566;27.820;2022-12-10T05:35:08;98157.81;;;13.02;100.00
9905;BME280;4991;43.566;27.820;2022-12-10T05:37:33;98158.28;;;13.04;100.00
9905;BME280;4991;43.566;27.820;2022-12-10T05:39:59;98161.50;;;13.06;100.00
9905;BME280;4991;43.566;27.820;2022-12-10T05:42:25;98165.47;;;13.09;100.00
9905;BME280;4991;43.566;27.820;2022-12-10T05:44:50;98157.94;;;13.06;100.00
9905;BME280;4991;43.566;27.820;2022-12-10T05:47:16;98162.75;;;13.09;100.00
9905;BME280;4991;43.566;27.820;2022-12-10T05:49:41;98166.75;;;13.11;100.00
9905;BME280;4991;43.566;27.820;2022-12-10T05:52:07;98160.63;;;13.14;100.00
9905;BME280;4991;43.566;27.820;2022-12-10T05:54:34;98150.94;;;13.17;100.00
9905;BME280;4991;43.566;27.820;2022-12-10T05:56:59;98162.00;;;13.20;100.00
9905;BME280;4991;43.566;27.820;2022-12-10T05:59:25;98161.31;;;13.23;100.00
9905;BME280;4991;43.566;27.820;2022-12-10T06:01:50;98155.63;;;13.28;100.00
9905;BME280;4991;43.566;27.820;2022-12-10T06:04:16;98157.13;;;13.26;100.00
9905;BME280;4991;43.566;27.820;2022-12-10T06:06:42;98157.25;;;13.29;100.00
9905;BME280;4991;43.566;27.820;2022-12-10T06:09:11;98156.44;;;13.29;100.00
9905;BME280;4991;43.566;27.820;2022-12-10T06:11:37;98161.38;;;13.35;100.00
9905;BME280;4991;43.566;27.820;2022-12-10T06:14:03;98162.16;;;13.36;100.00
9905;BME280;4991;43.566;27.820;2022-12-10T06:16:28;98168.31;;;13.33;100.00
9905;BME280;4991;43.566;27.820;2022-12-10T06:18:55;98159.09;;;13.37;100.00
9905;BME280;4991;43.566;27.820;2022-12-10T06:21:21;98147.94;;;13.42;100.00
9905;BME280;4991;43.566;27.820;2022-12-10T06:23:47;98152.41;;;13.47;100.00
9905;BME280;4991;43.566;27.820;2022-12-10T06:26:27;98154.78;;;13.48;100.00
9905;BME280;4991;43.566;27.820;2022-12-10T06:28:53;98160.25;;;13.48;100.00
9905;BME280;4991;43.566;27.820;2022-12-10T06:31:19;98156.88;;;13.51;100.00
9905;BME280;4991;43.566;27.820;2022-12-10T06:33:45;98152.88;;;13.49;100.00
9905;BME280;4991;43.566;27.820;2022-12-10T06:36:13;98153.47;;;13.54;100.00
9905;BME280;4991;43.566;27.820;2022-12-10T06:38:40;98159.06;;;13.58;100.00
9905;BME280;4991;43.566;27.820;2022-12-10T06:41:10;98167.81;;;13.63;100.00
9905;BME280;4991;43.566;27.820;2022-12-10T06:43:36;98162.34;;;13.63;100.00
9905;BME280;4991;43.566;27.820;2022-12-10T06:46:10;98167.16;;;13.66;100.00
9905;BME280;4991;43.566;27.820;2022-12-10T06:48:36;98167.41;;;13.73;100.00
9905;BME280;4991;43.566;27.820;2022-12-10T06:51:03;98166.72;;;13.76;100.00
9905;BME280;4991;43.566;27.820;2022-12-10T06:53:30;98172.78;;;13.82;100.00
9905;BME280;4991;43.566;27.820;2022-12-10T06:56:00;98160.38;;;13.84;100.00
9905;BME280;4991;43.566;27.820;2022-12-10T06:58:29;98160.13;;;13.89;100.00
9905;BME280;4991;43.566;27.820;2022-12-10T07:01:06;98159.56;;;13.96;100.00
9905;BME280;4991;43.566;27.820;2022-12-10T07:03:32;98163.91;;;13.97;100.00
9905;BME280;4991;43.566;27.820;2022-12-10T07:05:59;98151.72;;;13.94;100.00
9905;BME280;4991;43.566;27.820;2022-12-10T07:08:25;98147.81;;;13.95;100.00
9905;BME280;4991;43.566;27.820;2022-12-10T07:10:51;98147.13;;;13.98;100.00
9905;BME280;4991;43.566;27.820;2022-12-10T07:13:16;98134.81;;;14.04;100.00
9905;BME280;4991;43.566;27.820;2022-12-10T07:15:42;98138.34;;;14.05;100.00
9905;BME280;4991;43.566;27.820;2022-12-10T07:18:08;98142.69;;;14.06;100.00
9905;BME280;4991;43.566;27.820;2022-12-10T07:20:33;98142.34;;;14.07;100.00
9905;BME280;4991;43.566;27.820;2022-12-10T07:23:01;98145.75;;;14.04;100.00
9905;BME280;4991;43.566;27.820;2022-12-10T07:25:27;98147.38;;;14.05;100.00
9905;BME280;4991;43.566;27.820;2022-12-10T07:27:52;98145.53;;;14.09;100.00
9905;BME280;4991;43.566;27.820;2022-12-10T07:30:18;98148.94;;;14.06;100.00
9905;BME280;4991;43.566;27.820;2022-12-10T07:32:44;98148.94;;;14.06;100.00
9905;BME280;4991;43.566;27.820;2022-12-10T07:35:09;98149.19;;;14.01;100.00
9905;BME280;4991;43.566;27.820;2022-12-10T07:37:35;98139.50;;;14.04;100.00
9905;BME280;4991;43.566;27.820;2022-12-10T07:40:02;98145.88;;;14.08;100.00
9905;BME280;4991;43.566;27.820;2022-12-10T07:42:28;98142.47;;;14.11;100.00
9905;BME280;4991;43.566;27.820;2022-12-10T07:44:53;98134.47;;;14.18;100.00
9905;BME280;4991;43.566;27.820;2022-12-10T07:47:19;98140.41;;;14.20;100.00
9905;BME280;4991;43.566;27.820;2022-12-10T07:49:45;98141.00;;;14.26;100.00
9905;BME280;4991;43.566;27.820;2022-12-10T07:52:10;98130.50;;;14.28;100.00
9905;BME280;4991;43.566;27.820;2022-12-10T07:54:36;98137.22;;;14.30;100.00
9905;BME280;4991;43.566;27.820;2022-12-10T07:57:01;98130.38;;;14.36;100.00
9905;BME280;4991;43.566;27.820;2022-12-10T07:59:27;98129.94;;;14.34;100.00
9905;BME280;4991;43.566;27.820;2022-12-10T08:01:54;98130.47;;;14.40;100.00
9905;BME280;4991;43.566;27.820;2022-12-10T08:04:20;98127.50;;;14.45;100.00
9905;BME280;4991;43.566;27.820;2022-12-10T08:06:46;98127.84;;;14.43;100.00
9905;BME280;4991;43.566;27.820;2022-12-10T08:09:13;98137.09;;;14.51;100.00
9905;BME280;4991;43.566;27.820;2022-12-10T08:11:38;98129.44;;;14.56;100.00
9905;BME280;4991;43.566;27.820;2022-12-10T08:14:04;98137.88;;;14.63;100.00
9905;BME280;4991;43.566;27.820;2022-12-10T08:16:30;98125.09;;;14.67;100.00
9905;BME280;4991;43.566;27.820;2022-12-10T08:18:57;98122.88;;;14.73;100.00
9905;BME280;4991;43.566;27.820;2022-12-10T08:21:26;98122.63;;;14.78;100.00
9905;BME280;4991;43.566;27.820;2022-12-10T08:23:53;98123.09;;;14.80;100.00
9905;BME280;4991;43.566;27.820;2022-12-10T08:26:21;98123.16;;;14.95;100.00
9905;BME280;4991;43.566;27.820;2022-12-10T08:28:48;98115.28;;;14.94;100.00
9905;BME280;4991;43.566;27.820;2022-12-10T08:31:16;98115.94;;;15.03;100.00
9905;BME280;4991;43.566;27.820;2022-12-10T08:33:42;98111.78;;;15.09;100.00
9905;BME280;4991;43.566;27.820;2022-12-10T08:36:11;98111.88;;;15.12;100.00
9905;BME280;4991;43.566;27.820;2022-12-10T08:38:37;98112.19;;;15.23;100.00
9905;BME280;4991;43.566;27.820;2022-12-10T08:41:07;98112.28;;;15.26;100.00
9905;BME280;4991;43.566;27.820;2022-12-10T08:43:34;98106.44;;;15.28;100.00
9905;BME280;4991;43.566;27.820;2022-12-10T08:45:59;98108.22;;;15.36;100.00
9905;BME280;4991;43.566;27.820;2022-12-10T08:48:25;98102.53;;;15.29;100.00
9905;BME280;4991;43.566;27.820;2022-12-10T08:50:51;98112.03;;;15.31;100.00
9905;BME280;4991;43.566;27.820;2022-12-10T08:53:16;98099.31;;;15.39;100.00
9905;BME280;4991;43.566;27.820;2022-12-10T08:55:42;98094.97;;;15.38;100.00
9905;BME280;4991;43.566;27.820;2022-12-10T08:58:09;98094.28;;;15.41;100.00
9905;BME280;4991;43.566;27.820;2022-12-10T09:00:35;98094.22;;;15.53;100.00
9905;BME280;4991;43.566;27.820;2022-12-10T09:03:05;98087.91;;;15.52;100.00
9905;BME280;4991;43.566;27.820;2022-12-10T09:05:30;98083.94;;;15.66;100.00
9905;BME280;4991;43.566;27.820;2022-12-10T09:07:56;98079.00;;;15.87;100.00
9905;BME280;4991;43.566;27.820;2022-12-10T09:10:22;98069.31;;;16.08;100.00
9905;BME280;4991;43.566;27.820;2022-12-10T09:12:48;98070.66;;;16.33;100.00
9905;BME280;4991;43.566;27.820;2022-12-10T09:15:13;98068.16;;;16.59;100.00
9905;BME280;4991;43.566;27.820;2022-12-10T09:17:39;98059.31;;;16.69;100.00
9905;BME280;4991;43.566;27.820;2022-12-10T09:20:05;98055.63;;;17.00;100.00
9905;BME280;4991;43.566;27.820;2022-12-10T09:22:31;98043.94;;;17.26;100.00
9905;BME280;4991;43.566;27.820;2022-12-10T09:24:57;98048.41;;;17.15;100.00
9905;BME280;4991;43.566;27.820;2022-12-10T09:27:24;98030.91;;;17.23;100.00
9905;BME280;4991;43.566;27.820;2022-12-10T09:29:49;98033.13;;;17.81;100.00
9905;BME280;4991;43.566;27.820;2022-12-10T09:32:15;98038.75;;;17.66;100.00
9905;BME280;4991;43.566;27.820;2022-12-10T09:34:40;98034.50;;;17.27;100.00
9905;BME280;4991;43.566;27.820;2022-12-10T09:37:06;98030.56;;;17.28;100.00
9905;BME280;4991;43.566;27.820;2022-12-10T09:39:32;98029.53;;;17.13;100.00
9905;BME280;4991;43.566;27.820;2022-12-10T09:48:50;98006.44;;;17.85;100.00
9905;BME280;4991;43.566;27.820;2022-12-10T09:50:56;98000.38;;;18.29;100.00
9905;BME280;4991;43.566;27.820;2022-12-10T09:53:27;97994.34;;;18.49;100.00
9905;BME280;4991;43.566;27.820;2022-12-10T09:55:53;97993.59;;;18.52;100.00
9905;BME280;4991;43.566;27.820;2022-12-10T09:58:22;97995.31;;;18.60;100.00
9905;BME280;4991;43.566;27.820;2022-12-10T10:01:04;97987.03;;;18.60;100.00
9905;BME280;4991;43.566;27.820;2022-12-10T10:03:37;97987.22;;;18.78;100.00
9905;BME280;4991;43.566;27.820;2022-12-10T10:06:04;97977.13;;;18.92;100.00
9905;BME280;4991;43.566;27.820;2022-12-10T10:09:09;97979.47;;;18.87;100.00
9905;BME280;4991;43.566;27.820;2022-12-10T10:11:37;97983.22;;;18.72;100.00
9905;BME280;4991;43.566;27.820;2022-12-10T10:14:06;97989.50;;;18.39;100.00
9905;BME280;4991;43.566;27.820;2022-12-10T10:16:51;97989.84;;;18.38;100.00
9905;BME280;4991;43.566;27.820;2022-12-10T10:19:32;97980.84;;;18.41;100.00
9905;BME280;4991;43.566;27.820;2022-12-10T10:21:59;97971.97;;;18.25;100.00
9905;BME280;4991;43.566;27.820;2022-12-10T10:24:34;97960.16;;;17.98;100.00
9905;BME280;4991;43.566;27.820;2022-12-10T10:27:12;97960.81;;;17.88;100.00
9905;BME280;4991;43.566;27.820;2022-12-10T10:29:38;97958.53;;;17.93;100.00
9905;BME280;4991;43.566;27.820;2022-12-10T10:34:41;97945.69;;;18.04;100.00
9905;BME280;4991;43.566;27.820;2022-12-10T10:39:58;97949.81;;;18.47;100.00
9905;BME280;4991;43.566;27.820;2022-12-10T10:42:31;97936.50;;;18.53;100.00
9905;BME280;4991;43.566;27.820;2022-12-10T10:44:58;97944.63;;;18.42;100.00
9905;BME280;4991;43.566;27.820;2022-12-10T10:47:32;97939.44;;;18.37;100.00
9905;BME280;4991;43.566;27.820;2022-12-10T10:49:58;97943.59;;;18.24;100.00
9905;BME280;4991;43.566;27.820;2022-12-10T10:52:28;97955.75;;;18.20;100.00
9905;BME280;4991;43.566;27.820;2022-12-10T10:54:55;97947.72;;;18.08;100.00
9905;BME280;4991;43.566;27.820;2022-12-10T10:57:33;97948.41;;;18.01;100.00
9905;BME280;4991;43.566;27.820;2022-12-10T11:00:19;97939.00;;;18.02;100.00
9905;BME280;4991;43.566;27.820;2022-12-10T11:02:45;97943.53;;;17.91;100.00
9905;BME280;4991;43.566;27.820;2022-12-10T11:05:22;97943.84;;;17.86;100.00
9905;BME280;4991;43.566;27.820;2022-12-10T11:08:06;97944.81;;;17.97;100.00
9905;BME280;4991;43.566;27.820;2022-12-10T11:11:11;97929.38;;;18.19;100.00
9905;BME280;4991;43.566;27.820;2022-12-10T11:13:34;97924.34;;;18.28;100.00
9905;BME280;4991;43.566;27.820;2022-12-10T11:16:17;97924.44;;;18.35;100.00
9905;BME280;4991;43.566;27.820;2022-12-10T11:21:22;97924.63;;;18.45;100.00
9905;BME280;4991;43.566;27.820;2022-12-10T11:23:51;97936.03;;;18.47;100.00
9905;BME280;4991;43.566;27.820;2022-12-10T11:26:21;97931.31;;;18.48;100.00
9905;BME280;4991;43.566;27.820;2022-12-10T11:29:01;97933.25;;;18.44;100.00
9905;BME280;4991;43.566;27.820;2022-12-10T11:34:41;97920.53;;;18.69;100.00
9905;BME280;4991;43.566;27.820;2022-12-10T11:37:26;97916.78;;;18.87;100.00
9905;BME280;4991;43.566;27.820;2022-12-10T11:39:58;97898.34;;;18.95;100.00
9905;BME280;4991;43.566;27.820;2022-12-10T11:50:53;97902.66;;;18.92;100.00
9905;BME280;4991;43.566;27.820;2022-12-10T11:53:52;97895.47;;;18.84;100.00
9905;BME280;4991;43.566;27.820;2022-12-10T11:56:31;97892.06;;;18.98;100.00
9905;BME280;4991;43.566;27.820;2022-12-10T12:07:27;97892.19;;;19.59;100.00
9905;BME280;4991;43.566;27.820;2022-12-10T12:15:29;97912.66;;;19.51;100.00
9905;BME280;4991;43.566;27.820;2022-12-10T12:18:32;97913.59;;;19.73;100.00
9905;BME280;4991;43.566;27.820;2022-12-10T12:21:04;97908.22;;;19.97;100.00
9905;BME280;4991;43.566;27.820;2022-12-10T12:23:55;97892.81;;;19.93;100.00
9905;BME280;4991;43.566;27.820;2022-12-10T12:31:39;97878.78;;;20.33;100.00
9905;BME280;4991;43.566;27.820;2022-12-10T12:34:33;97869.25;;;20.20;100.00
9905;BME280;4991;43.566;27.820;2022-12-10T12:37:02;97862.47;;;20.10;100.00
9905;BME280;4991;43.566;27.820;2022-12-10T12:42:24;97856.28;;;20.38;100.00
9905;BME280;4991;43.566;27.820;2022-12-10T12:50:29;97857.72;;;19.39;100.00
9905;BME280;4991;43.566;27.820;2022-12-10T12:53:01;97857.59;;;19.28;100.00
9905;BME280;4991;43.566;27.820;2022-12-10T12:55:43;97875.94;;;19.00;100.00
9905;BME280;4991;43.566;27.820;2022-12-10T13:00:41;97865.00;;;18.70;100.00
9905;BME280;4991;43.566;27.820;2022-12-10T13:03:35;97861.69;;;18.54;100.00
9905;BME280;4991;43.566;27.820;2022-12-10T13:06:22;97844.13;;;18.36;100.00
9905;BME280;4991;43.566;27.820;2022-12-10T13:09:16;97846.56;;;18.08;100.00
9905;BME280;4991;43.566;27.820;2022-12-10T13:17:25;97850.41;;;17.70;100.00
9905;BME280;4991;43.566;27.820;2022-12-10T13:20:06;97859.69;;;17.59;100.00
9905;BME280;4991;43.566;27.820;2022-12-10T13:23:04;97863.19;;;17.56;100.00
9905;BME280;4991;43.566;27.820;2022-12-10T13:31:06;97866.28;;;17.28;100.00
9905;BME280;4991;43.566;27.820;2022-12-10T13:33:52;97870.88;;;17.21;100.00
9905;BME280;4991;43.566;27.820;2022-12-10T13:39:04;97856.44;;;17.01;100.00
9905;BME280;4991;43.566;27.820;2022-12-10T13:44:59;97852.63;;;16.87;100.00
9905;BME280;4991;43.566;27.820;2022-12-10T13:50:01;97847.19;;;16.67;100.00
9905;BME280;4991;43.566;27.820;2022-12-10T14:00:51;97869.97;;;16.26;100.00
9905;BME280;4991;43.566;27.820;2022-12-10T14:06:33;97871.97;;;16.10;100.00
9905;BME280;4991;43.566;27.820;2022-12-10T14:09:06;97877.75;;;16.05;100.00
9905;BME280;4991;43.566;27.820;2022-12-10T14:11:48;97865.84;;;15.98;100.00
9905;BME280;4991;43.566;27.820;2022-12-10T14:14:23;97868.06;;;15.92;100.00
9905;BME280;4991;43.566;27.820;2022-12-10T14:16:51;97870.34;;;15.87;100.00
9905;BME280;4991;43.566;27.820;2022-12-10T14:19:17;97861.56;;;15.81;100.00
9905;BME280;4991;43.566;27.820;2022-12-10T14:21:45;97862.22;;;15.75;100.00
9905;BME280;4991;43.566;27.820;2022-12-10T14:24:29;97844.78;;;15.67;100.00
9905;BME280;4991;43.566;27.820;2022-12-10T14:26:57;97840.75;;;15.61;100.00
9905;BME280;4991;43.566;27.820;2022-12-10T14:29:24;97832.00;;;15.56;100.00
9905;BME280;4991;43.566;27.820;2022-12-10T14:31:50;97847.59;;;15.52;100.00
9905;BME280;4991;43.566;27.820;2022-12-10T14:34:18;97844.69;;;15.44;100.00
9905;BME280;4991;43.566;27.820;2022-12-10T14:36:47;97838.25;;;15.37;100.00
9905;BME280;4991;43.566;27.820;2022-12-10T14:39:34;97840.09;;;15.33;100.00
9905;BME280;4991;43.566;27.820;2022-12-10T14:42:04;97848.25;;;15.29;100.00
9905;BME280;4991;43.566;27.820;2022-12-10T14:44:34;97844.81;;;15.17;100.00
9905;BME280;4991;43.566;27.820;2022-12-10T14:47:11;97839.25;;;15.13;100.00
9905;BME280;4991;43.566;27.820;2022-12-10T14:49:41;97834.41;;;15.07;100.00
9905;BME280;4991;43.566;27.820;2022-12-10T14:52:15;97835.44;;;15.02;100.00
9905;BME280;4991;43.566;27.820;2022-12-10T14:54:41;97836.97;;;15.00;100.00